默认 日期 大小 文件数 浏览量 最新下载 xml
diamonds磁力链接相关资源由用户搜索指令自动获取,结果来源于网络,本站不存储任何资料,亦不承担任何责任,请于24小时内删除,搜索到3128个磁力,用时4ms。
    {"folder.jpg": 78761, "audiochecker.log": 943, "02. Lazarus - Diamonds (UDM Remix).flac": 65674693, "01. Lazarus - Diamonds (Original Mix).flac": 62564138, "03. Lazarus - Diamonds (Kinetica Remix).flac": 68423973}
创建时间: 2019-02-07 23:16:55 大小:187.63 MB 文件数量:5 热度:3 最近下载:2022-11-15 18:48:18
    ... to Strangers.mp3": 11752612, "Dio Diamonds-The best of Front.jpg ...
创建时间: 2019-02-08 01:44:30 大小:150.05 MB 文件数量:15 热度:4 最近下载:2022-11-12 10:39:01
    ... Musik.log": 11743, "01 - Diamonds.mp3": 4749312, "03 - Footstomp. ... "Jet Harris & Tony Meehan - Diamonds And Other Gems - CD.jpg ... "Jet Harris & Tony Meehan - Diamonds And Other Gems - Back.jpg ... "Jet Harris & Tony Meehan - Diamonds And Other Gems - Front.jpg ...
创建时间: 2019-02-08 07:37:24 大小:83.8 MB 文件数量:25 热度:4 最近下载:2022-11-12 12:59:30
    {"RARBG.com.txt": 34, "auntjudys.14.12.30.angel.diamonds.masturbation.1080p.mp4": 621732443, "auntjudys.14.12.30.angel.diamonds.masturbation.1080p.nfo": 6983}
创建时间: 2019-02-14 00:48:21 大小:592.94 MB 文件数量:3 热度:11 最近下载:2025-06-06 17:18:01
    {"crack": {"run_5593b.exe": 376326}, "Torrent downloaded from 1337x.org.txt": 92, "Richard Clayderman Diamonds FLAC 2019.exe": 5603004, "Richard Clayderman Diamonds FLAC 2019.nfo": 728}
创建时间: 2019-02-14 01:49:08 大小:5.7 MB 文件数量:4 热度:3 最近下载:2022-11-12 10:50:31
    {"VeronicaRodriguez.16.01.12.Veronica.Rodriguez.And.Skin.Diamond.Diamonds.Make.Me.Squirt.XXX.1080p.MP4-KTR.mp4": 543995023}
创建时间: 2019-02-14 03:24:13 大小:518.79 MB 文件数量:1 热度:8 最近下载:2022-11-15 19:42:07
    {"03. Lies.mp3": 9244258, "14. Sex Yeah.mp3": 9217100, "09. Teen Idle.mp3": 10371713, "02. Primadonna.mp3": 9032158, "11. Hypocrates.mp3": 9838817, "04. Homewrecker.mp3": 8303864, "08. Living Dead.mp3": 9914053, "13. Radioactive.mp3": 9316372, "05. ...
创建时间: 2019-02-14 03:45:44 大小:145.54 MB 文件数量:16 热度:4 最近下载:2022-11-15 20:02:40
    {"10. Hustling.flac": 25014322, "04. Red Tapes.flac": 25917885, "06. Long Time.flac": 29786617, "01. Struggling.flac": 27996042, "Folder.auCDtect.txt": 4464, "02. Reggae-lution.flac": 25809698, "09. Someone To Love.flac": 26879867, "07. Tell Me What Wrong. ...
创建时间: 2019-02-14 05:24:17 大小:265.87 MB 文件数量:11 热度:5 最近下载:2022-11-12 10:40:33
    ... Die.m4a": 7793104, "01 - Shadows & Diamonds.m4a": 7807613, "10 - Drop Dead ...
创建时间: 2019-02-14 12:58:17 大小:110.76 MB 文件数量:16 热度:7 最近下载:2024-05-31 13:28:03
    ... ": 1174, "Cry Of Love - Diamonds & Debris.ape": 377287632, "Cry Of ... Love - Diamonds & Debris.cue": 1591, "Cry ... Of Love - Diamonds & Debris.log": 2465, "Cry ... Of Love - Diamonds & Debris - Back.jpg": 170707, ...
创建时间: 2019-02-14 15:10:05 大小:360.08 MB 文件数量:6 热度:3 最近下载:2022-11-12 09:43:03
    ... MySiLU.mkv": 4695421676, "Ashes.and.Diamonds.1958.BluRay.720p.x264.DTS ... .nfo": 3704, "Ashes.and.Diamonds.1958.BluRay.720p.x264.DTS ... .par2": 49344, "Ashes.and.Diamonds.1958.BluRay.720p.x264.DTS ... Sample.mkv": 46735535, "Ashes.and.Diamonds.1958.BluRay.720p.x264.DTS ...
创建时间: 2019-02-14 17:45:11 大小:4.43 GB 文件数量:7 热度:17 最近下载:2022-11-12 09:51:17
    {"bb.nfo": 2133, "diamonds_DVD.wmv": 1225960768}
创建时间: 2019-02-15 01:48:18 大小:1.14 GB 文件数量:2 热度:8 最近下载:2025-02-27 13:23:02
    {"06. No Doubt.mp3": 4397355, "04. Here I Am.mp3": 4665795, "01. Photograph.mp3": 4745999, "05. Blue Arrows.mp3": 3467984, "09. Little Star.mp3": 3960788, "03. Sad Dark Eyes.mp3": 4479953, "11. Out Of Time Man.mp3": 4576681, "07. Everything Is Fixed.mp3": ...
创建时间: 2019-02-15 04:23:15 大小:57.04 MB 文件数量:12 热度:3 最近下载:2022-11-15 19:53:09
    {"RARBG.txt": 30, "the.real.housewives.of.beverly.hills.s07e17.from.dogs.to.diamonds.1080p.web.x264-webster.mkv": 1365773407, "the.real.housewives.of.beverly.hills.s07e17.from.dogs.to.diamonds.1080p.web.x264-webster.nfo": 1003}
创建时间: 2019-02-15 08:14:10 大小:1.27 GB 文件数量:3 热度:2 最近下载:2021-06-17 16:25:58
    ... Album I Some Hearts Are Diamonds.cue": 1979, "Chris Norman - The ... Album I Some Hearts Are Diamonds.log": 3282, "Chris Norman - The ... Album I Some Hearts Are Diamonds.flac": 473939982}
创建时间: 2019-02-15 12:37:46 大小:494.86 MB 文件数量:7 热度:4 最近下载:2024-10-01 04:50:02
    ... ": 11920844, "06. Joanne Shaw Taylor - Diamonds In The Dirt.mp3": 12323570 ...
创建时间: 2019-02-15 18:05:17 大小:104.15 MB 文件数量:12 热度:2 最近下载:2021-06-17 16:25:58
    {"1-12 Numb.mp3": 10962372, "1-04 Girls.mp3": 9042871, "1-10 Oh No!.mp3": 7995930, "1-13 Guilty.mp3": 9534062, "1-02 Shampain.mp3": 8364815, "1-11 Rootless.mp3": 9039819, "1-07 Hollywood.mp3": 9905985, "1-06 Obsessions.mp3": 9108704, "1-08 The Outsider.mp3 ...
创建时间: 2019-02-16 10:11:07 大小:112.82 MB 文件数量:13 热度:3 最近下载:2021-06-17 16:25:58
    {"VIDEO_TS": {"VIDEO_TS.BUP": 18432, "VIDEO_TS.IFO": 18432, "VTS_01_0.BUP": 49152, "VTS_01_0.IFO": 49152, "VTS_01_0.VOB": 158947328, "VTS_01_1.VOB": 1073739776, "VTS_01_2.VOB": 1068851200, "VTS_02_0.BUP": 61440, "VTS_02_0.IFO": 61440, "VTS_02_0.VOB": ...
创建时间: 2019-02-16 10:46:36 大小:7.73 GB 文件数量:31 热度:5 最近下载:2025-01-14 04:58:04
    {"RARBG.txt": 30, "Keeping.Up.With.the.Kardashians.S14E15.Diamonds.Are.Forever.720p.HDTV.x264-CRiMSON.mkv": 1184585006, "keeping.up.with.the.kardashians.s14e15.diamonds.are.forever.720p.hdtv.x264-crimson.nfo": 831}
创建时间: 2019-02-16 13:28:03 大小:1.1 GB 文件数量:3 热度:2 最近下载:2021-06-17 16:25:58
    ... KREW_KATS - Samovar.wma": 1603422, "Diamonds 1 - Jumpin' (1).jpg": 419883 ... [previously unissued].wma": 2065892}, "Diamonds 2 - Highly Strung": {"22 ... In Space.wma": 2272432, "Diamonds 2 - Highly Strung (1 ... ).jpg": 527134, "Diamonds 2 - Highly Strung (2 ...
创建时间: 2019-02-16 20:28:45 大小:243.2 MB 文件数量:155 热度:3 最近下载:2021-06-17 16:25:58